createdAt,value
2022-07-27T00:01:04.533Z,63.68
2022-07-27T00:03:37.323Z,63.82
2022-07-27T00:06:09.349Z,64.62
2022-07-27T00:08:41.407Z,64.28
2022-07-27T00:11:13.934Z,64.51
2022-07-27T00:13:46.228Z,65.06
2022-07-27T00:16:18.252Z,64.95
2022-07-27T00:18:50.381Z,64.69
2022-07-27T00:21:22.481Z,64.74
2022-07-27T00:23:54.983Z,64.84
2022-07-27T00:26:26.957Z,65.19
2022-07-27T00:28:59.567Z,65.25
2022-07-27T00:31:31.592Z,65.81
2022-07-27T00:34:03.722Z,65.13
2022-07-27T00:36:35.805Z,65.20
2022-07-27T00:39:08.054Z,64.99
2022-07-27T00:41:40.799Z,65.78
2022-07-27T00:44:12.913Z,65.54
2022-07-27T00:46:45.016Z,65.93
2022-07-27T00:49:17.258Z,65.97
2022-07-27T00:51:50.938Z,65.31
2022-07-27T00:54:24.156Z,66.20
2022-07-27T00:56:57.090Z,66.22
2022-07-27T00:59:29.190Z,66.71
2022-07-27T01:02:01.335Z,66.63
2022-07-27T01:04:35.071Z,66.69
2022-07-27T01:07:07.982Z,66.69
2022-07-27T01:09:58.804Z,67.62
2022-07-27T01:12:32.621Z,67.58
2022-07-27T01:15:06.190Z,67.72
2022-07-27T01:17:38.918Z,67.05
2022-07-27T01:20:11.278Z,67.81
2022-07-27T01:22:43.256Z,67.39
2022-07-27T01:25:15.487Z,67.51
2022-07-27T01:27:47.550Z,68.26
2022-07-27T01:30:30.333Z,68.51
2022-07-27T01:33:04.990Z,68.05
2022-07-27T01:35:39.848Z,68.35
2022-07-27T01:38:13.153Z,68.25
2022-07-27T01:40:45.247Z,68.53
2022-07-27T01:43:17.562Z,68.50
2022-07-27T01:45:50.066Z,69.01
2022-07-27T01:48:22.236Z,69.25
2022-07-27T01:50:55.136Z,68.99
2022-07-27T01:53:27.089Z,69.79
2022-07-27T01:55:59.088Z,69.33
2022-07-27T01:58:31.051Z,69.83
2022-07-27T02:01:03.108Z,68.89
2022-07-27T02:03:35.930Z,69.42
2022-07-27T02:06:09.674Z,70.29
2022-07-27T02:08:41.752Z,70.14
2022-07-27T02:11:32.164Z,70.41
2022-07-27T02:14:04.229Z,70.41
2022-07-27T02:16:36.316Z,70.36
2022-07-27T02:19:09.078Z,69.82
2022-07-27T02:21:43.271Z,69.96
2022-07-27T02:24:15.237Z,70.31
2022-07-27T02:26:47.424Z,70.42
2022-07-27T02:29:21.787Z,70.33
2022-07-27T02:31:53.776Z,70.28
2022-07-27T02:34:25.883Z,69.77
2022-07-27T02:36:57.977Z,70.69
2022-07-27T02:39:30.128Z,70.49
2022-07-27T02:42:03.271Z,71.02
2022-07-27T02:44:35.359Z,71.19
2022-07-27T02:47:07.794Z,71.37
2022-07-27T02:49:39.819Z,71.76
2022-07-27T02:52:11.885Z,71.14
2022-07-27T02:54:43.907Z,71.18
2022-07-27T02:57:15.963Z,71.74
2022-07-27T02:59:47.925Z,71.79
2022-07-27T03:02:19.898Z,71.42
2022-07-27T03:04:52.177Z,71.43
2022-07-27T03:07:24.203Z,71.15
2022-07-27T03:09:56.155Z,71.39
2022-07-27T03:12:28.489Z,71.37
2022-07-27T03:15:00.441Z,71.58
2022-07-27T03:17:33.132Z,72.45
2022-07-27T03:20:06.153Z,72.60
2022-07-27T03:22:42.298Z,72.62
2022-07-27T03:25:14.246Z,72.02
2022-07-27T03:27:46.273Z,71.85
2022-07-27T03:30:18.260Z,72.29
2022-07-27T03:32:50.343Z,72.32
2022-07-27T03:35:22.441Z,72.55
2022-07-27T03:37:54.476Z,72.90
2022-07-27T03:40:29.518Z,72.49
2022-07-27T03:43:01.869Z,72.67
2022-07-27T03:45:34.026Z,72.15
2022-07-27T03:48:06.440Z,73.03
2022-07-27T03:50:38.508Z,72.88
2022-07-27T03:53:10.498Z,72.59
2022-07-27T03:55:42.449Z,72.33
2022-07-27T03:58:14.545Z,71.95
2022-07-27T04:00:46.747Z,72.69
2022-07-27T04:03:18.928Z,72.48
2022-07-27T04:05:50.937Z,71.57
2022-07-27T04:08:22.971Z,72.22
2022-07-27T04:10:55.060Z,72.42
2022-07-27T04:13:29.156Z,72.57
2022-07-27T04:16:01.629Z,73.21
2022-07-27T04:18:33.704Z,72.77
2022-07-27T04:21:06.502Z,72.54
2022-07-27T04:23:38.654Z,72.71
2022-07-27T04:26:10.677Z,73.17
2022-07-27T04:28:43.056Z,73.31
2022-07-27T04:31:17.170Z,73.37
2022-07-27T04:33:49.978Z,73.41
2022-07-27T04:36:21.969Z,73.92
2022-07-27T04:38:54.004Z,74.23
2022-07-27T04:41:30.364Z,74.41
2022-07-27T04:44:03.049Z,74.02
2022-07-27T04:46:35.132Z,74.51
2022-07-27T04:49:07.260Z,74.00
2022-07-27T04:51:44.794Z,73.57
2022-07-27T04:54:16.959Z,73.81
2022-07-27T04:56:48.990Z,73.18
2022-07-27T04:59:20.978Z,73.67
2022-07-27T05:01:56.071Z,73.97
2022-07-27T05:04:28.293Z,72.96
2022-07-27T05:07:02.488Z,72.99
2022-07-27T05:09:34.583Z,73.32
2022-07-27T05:12:06.890Z,72.69
2022-07-27T05:14:38.965Z,72.99
2022-07-27T05:17:10.936Z,72.14
2022-07-27T05:19:42.941Z,72.48
2022-07-27T05:22:15.045Z,71.75
2022-07-27T05:24:47.038Z,70.79
2022-07-27T05:27:19.074Z,70.70
2022-07-27T05:29:51.105Z,71.30
2022-07-27T05:32:25.782Z,71.53
2022-07-27T05:34:57.910Z,70.81
2022-07-27T05:37:30.368Z,71.01
2022-07-27T05:40:04.332Z,70.58
2022-07-27T05:42:36.925Z,70.87
2022-07-27T05:45:11.730Z,69.44
2022-07-27T05:47:43.832Z,69.36
2022-07-27T05:50:16.867Z,68.56
2022-07-27T05:52:48.961Z,67.52
2022-07-27T05:55:21.971Z,67.47
2022-07-27T05:57:53.961Z,67.14
2022-07-27T06:00:26.113Z,67.47
2022-07-27T06:02:58.228Z,65.75
2022-07-27T06:05:30.296Z,66.07
2022-07-27T06:08:09.049Z,65.40
2022-07-27T06:10:41.390Z,65.64
2022-07-27T06:13:14.027Z,65.47
2022-07-27T06:15:46.045Z,63.81
2022-07-27T06:18:18.608Z,63.84
2022-07-27T06:20:51.609Z,64.15
2022-07-27T06:23:23.790Z,63.24
2022-07-27T06:25:57.145Z,62.79
2022-07-27T06:28:29.289Z,62.85
2022-07-27T06:31:01.400Z,63.00
2022-07-27T06:33:34.647Z,61.67
2022-07-27T06:36:08.587Z,62.79
2022-07-27T06:38:40.870Z,61.68
2022-07-27T06:41:12.998Z,60.47
2022-07-27T06:43:45.066Z,59.41
2022-07-27T06:46:17.213Z,58.69
2022-07-27T06:48:49.435Z,57.51
2022-07-27T06:51:21.646Z,58.10
2022-07-27T06:53:54.518Z,57.67
2022-07-27T06:56:26.826Z,57.79
2022-07-27T06:58:58.851Z,57.99
2022-07-27T07:01:30.938Z,58.32
2022-07-27T07:04:03.206Z,58.77
2022-07-27T07:06:35.545Z,56.24
2022-07-27T07:09:08.822Z,56.37
2022-07-27T07:11:41.410Z,56.27
2022-07-27T07:14:13.434Z,55.14
2022-07-27T07:16:45.544Z,54.80
2022-07-27T07:19:17.680Z,55.79
2022-07-27T07:21:49.782Z,54.08
2022-07-27T07:24:21.885Z,53.51
2022-07-27T07:26:53.891Z,52.41
2022-07-27T07:29:26.009Z,51.82
2022-07-27T07:31:58.108Z,51.73
2022-07-27T07:34:30.176Z,53.23
2022-07-27T07:37:02.208Z,53.69
2022-07-27T07:39:34.646Z,54.68
2022-07-27T07:42:06.672Z,54.05
2022-07-27T07:44:43.408Z,54.60
2022-07-27T07:47:15.604Z,52.85
2022-07-27T07:49:47.833Z,52.88
2022-07-27T07:52:19.932Z,51.74
2022-07-27T07:54:51.905Z,48.81
2022-07-27T07:57:23.966Z,49.11
2022-07-27T07:59:55.955Z,49.04
2022-07-27T08:02:28.161Z,48.91
2022-07-27T08:05:01.547Z,48.13
2022-07-27T08:07:33.607Z,47.68
2022-07-27T08:10:08.062Z,47.73
2022-07-27T08:12:44.030Z,48.17
2022-07-27T08:15:17.750Z,46.81
2022-07-27T08:17:49.740Z,45.91
2022-07-27T08:20:23.699Z,42.13
2022-07-27T08:22:55.683Z,41.56
2022-07-27T08:25:27.991Z,40.48
2022-07-27T08:28:00.390Z,38.73
2022-07-27T08:30:35.136Z,39.43
2022-07-27T08:33:08.051Z,37.85
2022-07-27T08:35:40.142Z,37.38
2022-07-27T08:38:12.751Z,36.40
2022-07-27T08:40:46.992Z,35.87
2022-07-27T08:43:25.239Z,34.72
2022-07-27T08:46:00.997Z,36.52
2022-07-27T08:48:33.383Z,36.25
2022-07-27T08:51:07.659Z,35.93
2022-07-27T08:53:53.023Z,35.58
2022-07-27T08:56:26.044Z,34.87
2022-07-27T08:58:58.055Z,33.62
2022-07-27T09:01:33.310Z,34.86
2022-07-27T09:04:07.827Z,35.76
2022-07-27T09:06:53.306Z,37.51
2022-07-27T09:09:26.605Z,38.49
2022-07-27T09:12:08.729Z,40.39
2022-07-27T09:14:42.350Z,43.89
2022-07-27T09:20:21.320Z,46.69
2022-07-27T09:22:55.547Z,46.67
2022-07-27T09:26:01.573Z,45.61
2022-07-27T09:28:30.627Z,44.55
2022-07-27T09:31:09.222Z,44.70
2022-07-27T09:33:46.195Z,42.69
2022-07-27T09:36:20.731Z,42.23
2022-07-27T09:39:05.740Z,41.98
2022-07-27T09:41:48.222Z,39.34
2022-07-27T09:44:44.900Z,38.75
2022-07-27T09:47:30.968Z,37.57
2022-07-27T09:50:23.868Z,36.93
2022-07-27T09:53:41.706Z,35.66
2022-07-27T09:56:16.143Z,35.54
2022-07-27T09:58:57.481Z,34.87
2022-07-27T10:01:47.642Z,33.73
2022-07-27T10:04:23.281Z,32.26
2022-07-27T10:07:04.699Z,32.50
2022-07-27T10:09:39.651Z,32.51
2022-07-27T10:12:11.704Z,32.22
2022-07-27T10:14:43.772Z,31.72
2022-07-27T10:17:16.086Z,32.12
2022-07-27T10:19:52.250Z,31.67
2022-07-27T10:22:58.842Z,34.04
2022-07-27T10:25:37.311Z,32.62
2022-07-27T10:28:18.785Z,32.62
2022-07-27T10:30:54.533Z,33.44
2022-07-27T10:33:45.189Z,33.92
2022-07-27T10:36:39.121Z,33.98
2022-07-27T10:39:11.306Z,35.87
2022-07-27T10:41:44.012Z,36.73
2022-07-27T10:44:18.594Z,36.21
2022-07-27T10:47:01.247Z,35.89
2022-07-27T10:49:40.533Z,36.52
2022-07-27T10:52:42.460Z,32.17
2022-07-27T10:55:34.047Z,30.06
2022-07-27T10:58:15.084Z,29.44
2022-07-27T11:00:57.459Z,26.24
2022-07-27T11:03:42.466Z,25.57
2022-07-27T11:06:33.063Z,26.53
2022-07-27T11:10:00.027Z,28.17
2022-07-27T11:12:03.782Z,30.26
2022-07-27T11:14:50.108Z,31.60
2022-07-27T11:20:31.308Z,33.24
2022-07-27T11:26:17.361Z,34.01
2022-07-27T11:28:51.095Z,35.11
2022-07-27T11:31:45.082Z,37.14
2022-07-27T11:34:17.553Z,39.49
2022-07-27T11:36:50.478Z,39.96
2022-07-27T11:39:58.599Z,38.74
2022-07-27T11:42:21.856Z,37.63
2022-07-27T11:44:55.682Z,37.02
2022-07-27T11:47:30.046Z,34.35
2022-07-27T11:50:11.562Z,34.02
2022-07-27T11:52:43.729Z,34.86
2022-07-27T11:55:15.779Z,36.30
2022-07-27T11:57:47.798Z,36.14
2022-07-27T12:00:19.907Z,37.88
2022-07-27T12:02:52.334Z,38.79
2022-07-27T12:05:24.564Z,39.66
2022-07-27T12:07:56.827Z,39.23
2022-07-27T12:10:28.983Z,37.26
2022-07-27T12:13:01.399Z,36.50
2022-07-27T12:15:48.696Z,35.57
2022-07-27T12:18:20.800Z,37.85
2022-07-27T12:20:54.090Z,38.13
2022-07-27T12:23:30.074Z,38.43
2022-07-27T12:26:21.255Z,37.24
2022-07-27T12:29:12.203Z,36.99
2022-07-27T12:31:49.609Z,34.78
2022-07-27T12:34:21.637Z,34.84
2022-07-27T12:36:53.595Z,34.50
2022-07-27T12:39:29.968Z,36.03
2022-07-27T12:42:07.878Z,36.19
2022-07-27T12:44:43.382Z,37.59
2022-07-27T12:47:34.315Z,37.09
2022-07-27T12:50:17.038Z,36.96
2022-07-27T12:52:51.698Z,36.67
2022-07-27T12:55:24.307Z,35.74
2022-07-27T12:57:57.085Z,35.94
2022-07-27T13:00:33.985Z,34.20
2022-07-27T13:03:07.317Z,35.47
2022-07-27T13:05:39.520Z,29.72
2022-07-27T13:08:11.927Z,25.29
2022-07-27T13:10:52.593Z,25.24
2022-07-27T13:13:25.016Z,22.93
2022-07-27T13:15:57.185Z,23.47
2022-07-27T13:18:29.218Z,21.76
2022-07-27T13:21:01.700Z,20.80
2022-07-27T13:23:33.897Z,19.19
2022-07-27T13:26:05.899Z,18.69
2022-07-27T13:28:37.911Z,18.86
2022-07-27T13:31:09.964Z,19.94
2022-07-27T13:33:42.111Z,19.66
2022-07-27T13:36:14.116Z,21.09
2022-07-27T13:38:46.191Z,22.73
2022-07-27T13:41:18.488Z,25.29
2022-07-27T13:43:50.493Z,26.14
2022-07-27T13:46:22.604Z,25.22
2022-07-27T13:48:54.908Z,25.26
2022-07-27T13:51:27.078Z,25.59
2022-07-27T13:53:59.191Z,24.16
2022-07-27T13:56:32.615Z,24.81
2022-07-27T13:59:05.323Z,24.82
2022-07-27T14:01:38.281Z,26.88
2022-07-27T14:04:13.110Z,27.89
2022-07-27T14:06:45.612Z,27.49
2022-07-27T14:09:19.922Z,28.07
2022-07-27T14:11:52.961Z,29.85
2022-07-27T14:14:27.012Z,32.57
2022-07-27T14:16:59.265Z,34.22
2022-07-27T14:19:31.379Z,36.04
2022-07-27T14:22:03.523Z,35.38
2022-07-27T14:24:38.062Z,36.15
2022-07-27T14:27:10.761Z,34.96
2022-07-27T14:29:42.829Z,34.51
2022-07-27T14:32:14.776Z,35.64
2022-07-27T14:34:49.507Z,37.39
2022-07-27T14:37:21.637Z,38.42
2022-07-27T14:39:53.607Z,38.51
2022-07-27T14:42:26.185Z,37.16
2022-07-27T14:44:58.651Z,36.99
2022-07-27T14:47:30.680Z,36.44
2022-07-27T14:50:02.742Z,35.43
2022-07-27T14:52:34.928Z,36.59
2022-07-27T14:55:08.052Z,37.58
2022-07-27T14:57:40.223Z,36.69
2022-07-27T15:00:14.587Z,37.02
2022-07-27T15:02:47.341Z,36.88
2022-07-27T15:05:19.530Z,37.71
2022-07-27T15:07:51.721Z,37.16
2022-07-27T15:10:23.784Z,37.58
2022-07-27T15:12:56.045Z,37.42
2022-07-27T15:15:28.066Z,36.72
2022-07-27T15:18:00.095Z,36.63
2022-07-27T15:20:32.225Z,37.43
2022-07-27T15:23:04.743Z,37.41
2022-07-27T15:25:36.693Z,37.59
2022-07-27T15:28:08.800Z,38.05
2022-07-27T15:30:40.950Z,38.13
2022-07-27T15:33:13.065Z,37.90
2022-07-27T15:35:45.303Z,38.94
2022-07-27T15:38:17.396Z,38.17
2022-07-27T15:40:49.477Z,37.71
2022-07-27T15:43:21.706Z,38.34
2022-07-27T15:45:53.827Z,38.12
2022-07-27T15:48:26.377Z,38.15
2022-07-27T15:50:58.812Z,38.13
2022-07-27T15:53:32.014Z,38.42
2022-07-27T15:56:04.016Z,38.37
2022-07-27T15:58:36.116Z,39.56
2022-07-27T16:01:10.639Z,39.99
2022-07-27T16:03:44.282Z,39.95
2022-07-27T16:06:20.354Z,40.29
2022-07-27T16:08:52.409Z,39.94
2022-07-27T16:11:24.377Z,39.47
2022-07-27T16:13:56.510Z,38.93
2022-07-27T16:16:31.678Z,39.47
2022-07-27T16:19:12.271Z,38.04
2022-07-27T16:21:55.170Z,37.13
2022-07-27T16:24:27.871Z,37.71
2022-07-27T16:27:01.200Z,38.47
2022-07-27T16:29:34.814Z,37.14
2022-07-27T16:32:06.892Z,37.24
2022-07-27T16:34:39.626Z,37.70
2022-07-27T16:37:11.607Z,38.04
2022-07-27T16:39:43.569Z,37.93
2022-07-27T16:42:15.665Z,37.09
2022-07-27T16:44:47.842Z,35.34
2022-07-27T16:47:19.801Z,35.95
2022-07-27T16:49:51.836Z,36.16
2022-07-27T16:52:24.086Z,36.28
2022-07-27T16:54:56.148Z,36.72
2022-07-27T16:57:28.410Z,36.89
2022-07-27T17:00:00.407Z,37.70
2022-07-27T17:02:33.924Z,38.30
2022-07-27T17:05:07.581Z,38.80
2022-07-27T17:07:39.630Z,38.06
2022-07-27T17:10:11.680Z,37.94
2022-07-27T17:12:58.859Z,38.38
2022-07-27T17:15:30.977Z,38.39
2022-07-27T17:18:04.857Z,38.39
2022-07-27T17:20:37.445Z,38.39
2022-07-27T17:23:10.222Z,38.92
2022-07-27T17:25:42.271Z,38.53
2022-07-27T17:28:14.493Z,38.76
2022-07-27T17:30:46.703Z,38.14
2022-07-27T17:33:18.747Z,38.67
2022-07-27T17:35:50.753Z,38.23
2022-07-27T17:38:22.769Z,38.61
2022-07-27T17:40:54.788Z,38.91
2022-07-27T17:43:26.760Z,38.09
2022-07-27T17:45:59.228Z,38.52
2022-07-27T17:48:31.458Z,38.71
2022-07-27T17:51:05.875Z,38.76
2022-07-27T17:53:38.421Z,38.62
2022-07-27T17:56:11.193Z,39.20
2022-07-27T17:58:43.372Z,39.13
2022-07-27T18:01:15.597Z,39.77
2022-07-27T18:03:47.637Z,39.31
2022-07-27T18:06:19.672Z,39.49
2022-07-27T18:08:51.645Z,40.09
2022-07-27T18:11:23.735Z,40.63
2022-07-27T18:13:58.328Z,40.73
2022-07-27T18:16:31.868Z,41.02
2022-07-27T18:19:07.068Z,41.09
2022-07-27T18:21:39.124Z,41.59
2022-07-27T18:24:11.210Z,41.78
2022-07-27T18:26:43.239Z,41.74
2022-07-27T18:29:16.286Z,42.09
2022-07-27T18:31:48.509Z,41.86
2022-07-27T18:34:20.735Z,42.99
2022-07-27T18:36:52.789Z,43.08
2022-07-27T18:39:33.980Z,43.52
2022-07-27T18:42:06.203Z,44.04
2022-07-27T18:44:39.139Z,44.16
2022-07-27T18:47:11.292Z,44.80
2022-07-27T18:49:43.307Z,44.95
2022-07-27T18:52:15.633Z,45.83
2022-07-27T18:54:47.578Z,46.49
2022-07-27T18:57:20.367Z,46.31
2022-07-27T18:59:53.584Z,47.01
2022-07-27T19:02:25.638Z,47.14
2022-07-27T19:04:57.918Z,46.92
2022-07-27T19:07:30.928Z,47.58
2022-07-27T19:10:05.450Z,47.03
2022-07-27T19:12:37.617Z,46.49
2022-07-27T19:15:10.007Z,47.57
2022-07-27T19:17:42.019Z,47.06
2022-07-27T19:20:17.422Z,47.36
2022-07-27T19:22:50.145Z,47.53
2022-07-27T19:25:22.693Z,47.37
2022-07-27T19:27:54.813Z,47.19
2022-07-27T19:30:27.556Z,47.52
2022-07-27T19:32:59.753Z,47.87
2022-07-27T19:35:31.764Z,47.67
2022-07-27T19:38:03.997Z,47.56
2022-07-27T19:40:45.826Z,48.53
2022-07-27T19:43:19.710Z,48.20
2022-07-27T19:45:52.254Z,48.17
2022-07-27T19:48:24.864Z,48.63
2022-07-27T19:50:59.963Z,48.73
2022-07-27T19:53:35.731Z,48.76
2022-07-27T19:56:08.519Z,49.14
2022-07-27T19:58:40.612Z,48.79
2022-07-27T20:01:13.392Z,48.63
2022-07-27T20:03:52.304Z,49.25
2022-07-27T20:06:26.756Z,48.98
2022-07-27T20:08:59.884Z,49.03
2022-07-27T20:11:33.758Z,49.36
2022-07-27T20:14:05.836Z,49.71
2022-07-27T20:16:38.903Z,49.70
2022-07-27T20:19:11.336Z,49.74
2022-07-27T20:21:43.677Z,50.26
2022-07-27T20:24:15.845Z,49.90
2022-07-27T20:26:49.248Z,49.95
2022-07-27T20:29:21.461Z,49.95
2022-07-27T20:31:55.700Z,49.68
2022-07-27T20:34:27.755Z,49.89
2022-07-27T20:37:00.615Z,49.79
2022-07-27T20:39:33.207Z,49.74
2022-07-27T20:42:05.266Z,49.42
2022-07-27T20:44:37.314Z,50.04
2022-07-27T20:47:09.384Z,49.87
2022-07-27T20:49:41.405Z,50.12
2022-07-27T20:52:13.852Z,50.01
2022-07-27T20:54:45.913Z,49.49
2022-07-27T20:57:17.893Z,50.08
2022-07-27T20:59:49.901Z,49.51
2022-07-27T21:02:22.031Z,49.36
2022-07-27T21:04:55.087Z,50.23
2022-07-27T21:07:27.236Z,49.97
2022-07-27T21:09:59.356Z,50.73
2022-07-27T21:12:31.541Z,50.54
2022-07-27T21:15:07.536Z,50.12
2022-07-27T21:17:43.397Z,50.26
2022-07-27T21:20:15.612Z,50.48
2022-07-27T21:23:07.632Z,50.89
2022-07-27T21:25:44.125Z,50.77
2022-07-27T21:28:18.331Z,51.28
2022-07-27T21:30:51.134Z,51.67
2022-07-27T21:33:23.296Z,51.32
2022-07-27T21:35:55.361Z,51.35
2022-07-27T21:38:27.435Z,51.75
2022-07-27T21:40:59.385Z,51.59
2022-07-27T21:43:32.280Z,52.31
2022-07-27T21:46:04.291Z,51.69
2022-07-27T21:48:36.421Z,51.88
2022-07-27T21:51:08.842Z,52.12
2022-07-27T21:53:40.819Z,53.22
2022-07-27T21:56:15.346Z,53.59
2022-07-27T21:58:48.161Z,53.96
2022-07-27T22:01:20.316Z,54.83
2022-07-27T22:03:52.791Z,54.79
2022-07-27T22:06:24.796Z,54.76
2022-07-27T22:08:56.792Z,54.67
2022-07-27T22:11:28.780Z,54.72
2022-07-27T22:14:00.842Z,55.23
2022-07-27T22:16:32.843Z,55.66
2022-07-27T22:19:05.119Z,55.66
2022-07-27T22:21:37.168Z,56.31
2022-07-27T22:24:09.217Z,55.82
2022-07-27T22:26:41.377Z,56.69
2022-07-27T22:29:13.359Z,56.83
2022-07-27T22:31:45.454Z,57.04
2022-07-27T22:34:17.777Z,56.83
2022-07-27T22:36:50.562Z,56.72
2022-07-27T22:39:22.698Z,56.28
2022-07-27T22:41:54.727Z,57.00
2022-07-27T22:44:26.691Z,57.19
2022-07-27T22:46:58.621Z,57.35
2022-07-27T22:49:30.679Z,58.11
2022-07-27T22:52:06.646Z,57.54
2022-07-27T22:54:39.004Z,58.42
2022-07-27T22:57:11.163Z,57.73
2022-07-27T22:59:43.172Z,58.51
2022-07-27T23:02:15.104Z,58.74
2022-07-27T23:04:47.181Z,58.67
2022-07-27T23:07:19.220Z,59.22
2022-07-27T23:09:51.431Z,58.74
2022-07-27T23:12:23.777Z,58.43
2022-07-27T23:14:55.853Z,58.86
2022-07-27T23:17:27.811Z,59.00
2022-07-27T23:19:59.815Z,58.50
2022-07-27T23:22:31.802Z,58.84
2022-07-27T23:25:07.354Z,58.59
2022-07-27T23:27:39.435Z,59.61
2022-07-27T23:30:11.870Z,59.84
2022-07-27T23:32:43.851Z,59.92
2022-07-27T23:35:16.579Z,60.03
2022-07-27T23:37:48.617Z,60.09
2022-07-27T23:40:20.668Z,60.43
2022-07-27T23:42:52.689Z,60.79
2022-07-27T23:45:24.735Z,60.84
2022-07-27T23:47:56.723Z,61.06
2022-07-27T23:50:28.754Z,61.84
2022-07-27T23:53:00.759Z,61.65
2022-07-27T23:55:32.746Z,61.95
2022-07-27T23:58:04.904Z,62.23
